메인 페이지
METAR-TAF:

METAR-TAF

공항 :

린셰핑, 스웨덴

위도: 58-24N, 경도: 015-41E, 고도: 52m

현재 날씨관측

예보는 54분 전, 03:20시(UTC)에 발표되었습니다.
3kt
온도 17°C
습도 88%
기압 1012 hPa
시정 10km 이상
1500m 미만 상공 구름 및 적란운 없음

METAR: ESSL 210320Z 10003KT CAVOK 17/15 Q1012

시각: 06:14 (04:14 UTC)

예보

예보는 1 시간 44분 전, 02:30시(UTC)에 발표되었습니다.
예보 대상 시간: 21일 03시부터 21일 05시까지 (UTC)
여러 방향의 바람 3kt
시정 10km 이상
1500m 미만 상공 구름 및 적란운 없음

TAF: ESSL 210230Z 2103/2105 VRB03KT CAVOK

4,000개 이상의 공항 관측 자료 및 예보 (METAR 및 TAF 보고).

지도상에서 검색 가능한 기상관측소가 노란 점과 빨간 점으로 표시되어 있습니다.

기상관측소 명을 보려면 표시 위로 마우스를 이동하세요.

날씨 관측과 예보를 보려면 클릭하세요.

지도 변경 : 확대하려면 엑스 표시가 있는 녹색 버튼, 축소하려면 빼기 표시가 있는 녹색 버튼, 다음 페이지의 지도를 보려면 녹색 화살표를 클릭하세요.


METAR-TAF: